createdAt,value
2023-05-24T00:00:16.003Z,11.50
2023-05-24T00:02:44.588Z,11.50
2023-05-24T00:05:14.850Z,11.50
2023-05-24T00:07:44.592Z,11.40
2023-05-24T00:10:13.909Z,11.40
2023-05-24T00:12:42.334Z,11.40
2023-05-24T00:15:11.774Z,11.40
2023-05-24T00:17:41.556Z,11.20
2023-05-24T00:20:14.353Z,11.10
2023-05-24T00:22:44.483Z,11.10
2023-05-24T00:25:12.939Z,11.10
2023-05-24T00:27:41.193Z,11.00
2023-05-24T00:30:10.114Z,11.00
2023-05-24T00:32:38.481Z,11.00
2023-05-24T00:35:09.987Z,11.00
2023-05-24T00:37:41.830Z,10.90
2023-05-24T00:40:12.818Z,11.00
2023-05-24T00:42:41.428Z,11.00
2023-05-24T00:45:11.352Z,11.00
2023-05-24T00:47:39.938Z,11.00
2023-05-24T00:50:13.035Z,11.00
2023-05-24T00:52:43.473Z,11.10
2023-05-24T00:55:17.113Z,11.10
2023-05-24T00:57:46.289Z,11.10
2023-05-24T01:00:18.468Z,11.10
2023-05-24T01:02:48.341Z,11.10
2023-05-24T01:05:17.346Z,11.10
2023-05-24T01:08:04.014Z,11.00
2023-05-24T01:10:52.380Z,11.10
2023-05-24T01:13:31.330Z,11.00
2023-05-24T01:16:06.526Z,11.10
2023-05-24T01:18:40.892Z,11.10
2023-05-24T01:21:26.493Z,11.10
2023-05-24T01:24:14.530Z,11.00
2023-05-24T01:27:05.396Z,11.00
2023-05-24T01:29:35.620Z,10.80
2023-05-24T01:32:05.144Z,10.90
2023-05-24T01:34:33.526Z,10.90
2023-05-24T01:37:01.907Z,10.80
2023-05-24T01:39:31.734Z,10.80
2023-05-24T01:42:16.155Z,11.00
2023-05-24T01:44:52.241Z,10.70
2023-05-24T01:47:35.604Z,10.70
2023-05-24T01:50:15.732Z,10.70
2023-05-24T01:52:48.104Z,10.70
2023-05-24T01:55:19.418Z,10.80
2023-05-24T01:57:52.786Z,10.80
2023-05-24T02:00:23.113Z,10.70
2023-05-24T02:02:53.075Z,10.60
2023-05-24T02:05:22.466Z,10.60
2023-05-24T02:07:50.999Z,10.60
2023-05-24T02:10:19.363Z,10.50
2023-05-24T02:12:49.008Z,10.50
2023-05-24T02:15:17.257Z,10.40
2023-05-24T02:17:45.980Z,10.50
2023-05-24T02:20:14.960Z,10.40
2023-05-24T02:22:43.352Z,10.40
2023-05-24T02:25:11.747Z,10.40
2023-05-24T02:27:40.052Z,10.40
2023-05-24T02:30:11.322Z,10.30
2023-05-24T02:32:39.650Z,10.20
2023-05-24T02:35:08.651Z,10.20
2023-05-24T02:37:36.921Z,10.20
2023-05-24T02:40:06.455Z,10.10
2023-05-24T02:42:34.849Z,10.10
2023-05-24T02:45:03.514Z,10.10
2023-05-24T02:47:33.256Z,10.00
2023-05-24T02:50:01.621Z,10.00
2023-05-24T02:52:29.918Z,10.00
2023-05-24T02:54:58.160Z,9.90
2023-05-24T02:57:26.775Z,9.90
2023-05-24T02:59:55.876Z,9.90
2023-05-24T03:02:24.227Z,9.80
2023-05-24T03:04:53.925Z,9.80
2023-05-24T03:07:24.957Z,9.80
2023-05-24T03:09:53.141Z,9.80
2023-05-24T03:12:21.365Z,9.70
2023-05-24T03:14:50.046Z,9.80
2023-05-24T03:17:18.363Z,9.70
2023-05-24T03:19:46.691Z,9.50
2023-05-24T03:22:16.655Z,9.70
2023-05-24T03:24:46.272Z,9.70
2023-05-24T03:27:17.486Z,9.70
2023-05-24T03:29:45.744Z,9.70
2023-05-24T03:32:14.000Z,9.70
2023-05-24T03:34:42.318Z,9.70
2023-05-24T03:37:10.695Z,9.70
2023-05-24T03:39:40.276Z,9.70
2023-05-24T03:42:09.082Z,9.70
2023-05-24T03:44:37.386Z,9.70
2023-05-24T03:47:06.396Z,9.60
2023-05-24T03:49:34.689Z,9.60
2023-05-24T03:52:03.464Z,9.50
2023-05-24T03:54:31.834Z,9.70
2023-05-24T03:57:02.614Z,9.70
2023-05-24T03:59:31.642Z,9.80
2023-05-24T04:02:02.088Z,9.80
2023-05-24T04:07:18.297Z,9.80
2023-05-24T04:09:46.601Z,9.80
2023-05-24T04:12:16.270Z,9.80
2023-05-24T04:14:44.555Z,9.90
2023-05-24T04:17:13.563Z,9.90
2023-05-24T04:19:42.033Z,9.90
2023-05-24T04:22:10.511Z,10.00
2023-05-24T04:24:38.742Z,10.00
2023-05-24T04:27:08.027Z,10.10
2023-05-24T04:29:37.621Z,10.20
2023-05-24T04:32:06.587Z,10.20
2023-05-24T04:34:35.712Z,10.20
2023-05-24T04:37:04.418Z,10.40
2023-05-24T04:39:32.634Z,10.40
2023-05-24T04:42:00.893Z,10.40
2023-05-24T04:44:29.128Z,10.50
2023-05-24T04:46:58.884Z,10.60
2023-05-24T04:49:27.129Z,10.70
2023-05-24T04:51:55.514Z,10.70
2023-05-24T04:54:23.807Z,10.90
2023-05-24T04:56:52.279Z,10.80
2023-05-24T04:59:20.473Z,11.00
2023-05-24T05:01:48.927Z,11.20
2023-05-24T05:04:18.864Z,11.20
2023-05-24T05:06:48.176Z,11.20
2023-05-24T05:09:16.378Z,11.10
2023-05-24T05:11:44.760Z,11.00
2023-05-24T05:14:13.041Z,11.20
2023-05-24T05:16:41.593Z,11.30
2023-05-24T05:19:10.119Z,11.30
2023-05-24T05:21:39.895Z,11.30
2023-05-24T05:24:09.096Z,11.30
2023-05-24T05:26:37.425Z,11.40
2023-05-24T05:29:05.682Z,11.50
2023-05-24T05:31:33.924Z,11.50
2023-05-24T05:34:02.141Z,11.60
2023-05-24T05:36:30.425Z,11.80
2023-05-24T05:38:59.982Z,12.10
2023-05-24T05:41:28.510Z,12.20
2023-05-24T05:43:56.760Z,12.30
2023-05-24T05:46:24.958Z,12.40
2023-05-24T05:48:53.216Z,12.60
2023-05-24T05:51:21.381Z,12.60
2023-05-24T05:53:49.680Z,12.60
2023-05-24T05:56:19.429Z,12.60
2023-05-24T05:58:47.631Z,12.30
2023-05-24T06:01:16.832Z,12.30
2023-05-24T06:03:45.713Z,12.30
2023-05-24T06:06:14.118Z,12.30
2023-05-24T06:08:42.487Z,12.30
2023-05-24T06:11:10.966Z,12.70
2023-05-24T06:13:40.733Z,13.00
2023-05-24T06:16:10.019Z,13.20
2023-05-24T06:18:38.541Z,13.40
2023-05-24T06:21:10.498Z,13.30
2023-05-24T06:23:39.158Z,13.20
2023-05-24T06:26:09.593Z,13.10
2023-05-24T06:28:38.352Z,13.10
2023-05-24T06:31:08.184Z,12.90
2023-05-24T06:33:37.888Z,12.60
2023-05-24T06:36:06.963Z,12.70
2023-05-24T06:38:36.003Z,12.80
2023-05-24T06:41:04.239Z,12.80
2023-05-24T06:43:33.358Z,12.80
2023-05-24T06:46:01.665Z,12.90
2023-05-24T06:48:31.333Z,12.90
2023-05-24T06:50:59.614Z,13.20
2023-05-24T06:53:27.931Z,13.80
2023-05-24T06:55:57.667Z,14.00
2023-05-24T06:58:26.080Z,14.40
2023-05-24T07:00:54.478Z,14.50
2023-05-24T07:03:23.398Z,14.50
2023-05-24T07:05:53.082Z,14.20
2023-05-24T07:08:21.751Z,14.30
2023-05-24T07:10:50.038Z,14.50
2023-05-24T07:13:18.296Z,14.70
2023-05-24T07:15:47.882Z,14.90
2023-05-24T07:18:16.415Z,14.90
2023-05-24T07:20:45.079Z,14.70
2023-05-24T07:23:15.100Z,14.50
2023-05-24T07:25:43.297Z,14.70
2023-05-24T07:28:14.178Z,14.90
2023-05-24T07:30:42.524Z,15.00
2023-05-24T07:33:11.382Z,15.10
2023-05-24T07:35:40.200Z,14.90
2023-05-24T07:38:08.693Z,14.50
2023-05-24T07:40:38.326Z,14.50
2023-05-24T07:43:06.758Z,14.50
2023-05-24T07:45:35.024Z,14.50
2023-05-24T07:48:03.288Z,14.90
2023-05-24T07:50:31.932Z,15.10
2023-05-24T07:53:00.277Z,15.30
2023-05-24T07:55:28.568Z,15.40
2023-05-24T07:57:58.362Z,15.80
2023-05-24T08:00:26.804Z,15.80
2023-05-24T08:02:55.100Z,15.90
2023-05-24T08:05:23.942Z,15.50
2023-05-24T08:07:52.367Z,15.30
2023-05-24T08:10:21.832Z,14.80
2023-05-24T08:12:51.551Z,14.50
2023-05-24T08:15:21.299Z,14.40
2023-05-24T08:17:50.247Z,14.20
2023-05-24T08:20:18.891Z,14.00
2023-05-24T08:22:48.303Z,13.90
2023-05-24T08:25:16.570Z,13.90
2023-05-24T08:27:44.811Z,13.90
2023-05-24T08:30:15.145Z,13.70
2023-05-24T08:32:44.933Z,13.80
2023-05-24T08:35:20.951Z,13.70
2023-05-24T08:37:50.250Z,13.70
2023-05-24T08:40:19.091Z,13.60
2023-05-24T08:42:47.625Z,14.00
2023-05-24T08:45:16.789Z,13.90
2023-05-24T08:47:48.767Z,14.20
2023-05-24T08:50:17.046Z,14.20
2023-05-24T08:52:46.958Z,13.80
2023-05-24T08:55:17.057Z,13.50
2023-05-24T08:57:47.785Z,14.00
2023-05-24T09:00:18.080Z,14.50
2023-05-24T09:02:48.331Z,15.10
2023-05-24T09:05:17.895Z,15.10
2023-05-24T09:07:47.340Z,15.20
2023-05-24T09:10:16.756Z,15.20
2023-05-24T09:12:52.016Z,15.30
2023-05-24T09:15:22.454Z,15.20
2023-05-24T09:17:52.079Z,15.50
2023-05-24T09:20:22.307Z,15.70
2023-05-24T09:22:54.294Z,15.60
2023-05-24T09:25:22.592Z,15.70
2023-05-24T09:27:52.971Z,15.60
2023-05-24T09:30:22.178Z,16.20
2023-05-24T09:33:00.656Z,16.20
2023-05-24T09:35:29.718Z,16.30
2023-05-24T09:37:59.935Z,16.60
2023-05-24T09:40:30.062Z,16.50
2023-05-24T09:43:07.491Z,16.50
2023-05-24T09:45:43.011Z,16.30
2023-05-24T09:48:15.265Z,16.40
2023-05-24T09:50:45.787Z,15.60
2023-05-24T09:53:14.528Z,15.50
2023-05-24T09:55:43.109Z,15.50
2023-05-24T09:58:12.928Z,15.40
2023-05-24T10:00:43.440Z,15.40
2023-05-24T10:03:15.212Z,15.30
2023-05-24T10:05:46.584Z,15.20
2023-05-24T10:08:15.523Z,15.30
2023-05-24T10:10:44.894Z,15.70
2023-05-24T10:13:15.969Z,15.80
2023-05-24T10:15:45.500Z,16.20
2023-05-24T10:18:15.501Z,16.50
2023-05-24T10:20:44.574Z,16.70
2023-05-24T10:23:21.667Z,16.30
2023-05-24T10:25:56.499Z,15.60
2023-05-24T10:28:27.258Z,15.80
2023-05-24T10:31:08.493Z,15.70
2023-05-24T10:33:40.107Z,15.80
2023-05-24T10:36:12.889Z,15.90
2023-05-24T10:38:42.011Z,15.70
2023-05-24T10:41:10.666Z,15.80
2023-05-24T10:43:40.325Z,15.40
2023-05-24T10:46:11.273Z,15.40
2023-05-24T10:48:41.991Z,15.80
2023-05-24T10:51:35.066Z,16.20
2023-05-24T10:54:19.225Z,16.70
2023-05-24T10:56:50.233Z,16.50
2023-05-24T10:59:31.640Z,17.10
2023-05-24T11:02:01.090Z,17.30
2023-05-24T11:04:37.655Z,17.20
2023-05-24T11:07:09.809Z,17.00
2023-05-24T11:09:45.852Z,17.50
2023-05-24T11:12:18.506Z,17.40
2023-05-24T11:14:51.389Z,17.30
2023-05-24T11:17:23.094Z,17.20
2023-05-24T11:19:55.166Z,17.20
2023-05-24T11:22:26.803Z,17.10
2023-05-24T11:24:57.598Z,16.70
2023-05-24T11:27:26.972Z,16.70
2023-05-24T11:29:56.044Z,16.40
2023-05-24T11:32:25.204Z,16.80
2023-05-24T11:34:56.295Z,16.90
2023-05-24T11:37:38.376Z,17.00
2023-05-24T11:40:16.410Z,17.30
2023-05-24T11:42:45.560Z,17.00
2023-05-24T11:45:15.730Z,17.40
2023-05-24T11:47:44.175Z,18.10
2023-05-24T11:50:17.702Z,18.60
2023-05-24T11:52:46.027Z,17.90
2023-05-24T11:55:17.169Z,17.70
2023-05-24T11:57:57.213Z,17.80
2023-05-24T12:00:28.840Z,17.60
2023-05-24T12:03:01.758Z,17.30
2023-05-24T12:05:32.852Z,17.30
2023-05-24T12:08:06.866Z,17.20
2023-05-24T12:10:36.977Z,17.10
2023-05-24T12:13:07.176Z,17.20
2023-05-24T12:15:35.659Z,17.00
2023-05-24T12:18:04.186Z,16.80
2023-05-24T12:20:34.189Z,16.50
2023-05-24T12:23:02.753Z,16.70
2023-05-24T12:25:31.130Z,17.10
2023-05-24T12:27:59.524Z,17.50
2023-05-24T12:30:28.636Z,18.10
2023-05-24T12:32:57.770Z,18.80
2023-05-24T12:35:26.344Z,18.60
2023-05-24T12:38:01.188Z,18.60
2023-05-24T12:40:33.763Z,18.60
2023-05-24T12:43:03.745Z,18.20
2023-05-24T12:45:32.715Z,18.10
2023-05-24T12:48:02.819Z,18.00
2023-05-24T12:50:31.626Z,18.70
2023-05-24T12:53:02.040Z,19.60
2023-05-24T12:55:30.603Z,20.60
2023-05-24T12:58:01.790Z,20.10
2023-05-24T13:00:30.824Z,20.00
2023-05-24T13:03:00.138Z,19.50
2023-05-24T13:05:30.169Z,19.10
2023-05-24T13:08:00.248Z,18.80
2023-05-24T13:10:28.679Z,18.80
2023-05-24T13:12:57.486Z,18.40
2023-05-24T13:15:27.203Z,18.10
2023-05-24T13:17:56.226Z,18.50
2023-05-24T13:20:24.768Z,18.60
2023-05-24T13:22:53.514Z,18.50
2023-05-24T13:25:23.588Z,18.50
2023-05-24T13:27:51.988Z,18.20
2023-05-24T13:30:27.442Z,18.80
2023-05-24T13:32:56.616Z,20.30
2023-05-24T13:35:25.562Z,20.90
2023-05-24T13:37:54.823Z,21.70
2023-05-24T13:40:25.147Z,21.90
2023-05-24T13:42:53.915Z,22.60
2023-05-24T13:45:22.607Z,22.30
2023-05-24T13:47:51.655Z,21.60
2023-05-24T13:50:20.457Z,21.10
2023-05-24T13:52:48.798Z,20.40
2023-05-24T13:55:17.203Z,20.80
2023-05-24T13:57:51.207Z,20.90
2023-05-24T14:00:21.594Z,20.50
2023-05-24T14:02:50.340Z,20.60
2023-05-24T14:05:27.440Z,20.40
2023-05-24T14:07:57.598Z,20.30
2023-05-24T14:10:26.284Z,19.80
2023-05-24T14:13:07.955Z,20.20
2023-05-24T14:15:44.845Z,21.10
2023-05-24T14:18:13.928Z,21.70
2023-05-24T14:20:44.181Z,22.00
2023-05-24T14:23:12.953Z,21.90
2023-05-24T14:25:42.283Z,22.50
2023-05-24T14:28:13.817Z,23.10
2023-05-24T14:30:42.368Z,23.60
2023-05-24T14:33:11.556Z,24.10
2023-05-24T14:35:40.708Z,24.30
2023-05-24T14:38:11.455Z,25.10
2023-05-24T14:40:40.945Z,26.00
2023-05-24T14:43:11.609Z,24.90
2023-05-24T14:45:41.721Z,24.00
2023-05-24T14:48:12.506Z,24.50
2023-05-24T14:50:42.039Z,24.70
2023-05-24T14:53:12.211Z,24.70
2023-05-24T14:55:46.565Z,24.60
2023-05-24T14:58:16.527Z,24.50
2023-05-24T15:00:45.198Z,25.30
2023-05-24T15:03:15.006Z,24.60
2023-05-24T15:05:43.876Z,23.70
2023-05-24T15:08:12.608Z,23.80
2023-05-24T15:10:43.781Z,23.30
2023-05-24T15:13:12.729Z,22.80
2023-05-24T15:15:43.399Z,23.40
2023-05-24T15:18:11.740Z,23.50
2023-05-24T15:20:40.236Z,22.40
2023-05-24T15:23:10.653Z,21.20
2023-05-24T15:25:39.244Z,20.20
2023-05-24T15:28:07.830Z,20.10
2023-05-24T15:30:36.056Z,19.80
2023-05-24T15:33:06.153Z,19.70
2023-05-24T15:35:34.546Z,20.10
2023-05-24T15:38:02.849Z,20.90
2023-05-24T15:40:31.186Z,20.90
2023-05-24T15:42:59.985Z,21.00
2023-05-24T15:45:28.276Z,21.00
2023-05-24T15:47:56.747Z,20.80
2023-05-24T15:50:45.662Z,20.70
2023-05-24T15:53:15.229Z,20.70
2023-05-24T15:55:43.924Z,20.40
2023-05-24T15:58:13.506Z,20.00
2023-05-24T16:00:41.965Z,19.60
2023-05-24T16:03:15.378Z,19.30
2023-05-24T16:05:48.614Z,19.00
2023-05-24T16:08:17.260Z,19.00
2023-05-24T16:10:46.254Z,18.70
2023-05-24T16:13:14.798Z,18.50
2023-05-24T16:15:47.489Z,18.40
2023-05-24T16:18:18.477Z,18.20
2023-05-24T16:20:49.501Z,18.20
2023-05-24T16:23:18.187Z,18.30
2023-05-24T16:25:47.080Z,18.50
2023-05-24T16:28:15.537Z,18.40
2023-05-24T16:30:44.148Z,18.30
2023-05-24T16:33:12.655Z,18.20
2023-05-24T16:35:40.994Z,18.30
2023-05-24T16:38:10.732Z,18.40
2023-05-24T16:40:39.029Z,18.30
2023-05-24T16:43:07.477Z,18.30
2023-05-24T16:45:35.767Z,18.50
2023-05-24T16:48:04.222Z,18.60
2023-05-24T16:50:33.686Z,18.50
2023-05-24T16:53:01.957Z,18.40
2023-05-24T16:55:31.837Z,18.20
2023-05-24T16:58:00.321Z,18.30
2023-05-24T17:00:28.962Z,18.50
2023-05-24T17:02:59.438Z,18.40
2023-05-24T17:05:27.902Z,18.10
2023-05-24T17:07:56.984Z,18.00
2023-05-24T17:10:25.928Z,17.80
2023-05-24T17:12:55.681Z,17.60
2023-05-24T17:15:24.599Z,17.40
2023-05-24T17:17:53.211Z,17.20
2023-05-24T17:20:21.736Z,17.20
2023-05-24T17:22:50.588Z,17.20
2023-05-24T17:25:19.290Z,16.90
2023-05-24T17:27:47.608Z,16.70
2023-05-24T17:30:19.817Z,16.60
2023-05-24T17:32:48.158Z,16.50
2023-05-24T17:35:17.019Z,16.50
2023-05-24T17:37:45.299Z,16.40
2023-05-24T17:40:13.825Z,16.40
2023-05-24T17:42:43.182Z,16.30
2023-05-24T17:45:12.674Z,16.40
2023-05-24T17:47:42.396Z,16.30
2023-05-24T17:50:11.976Z,16.20
2023-05-24T17:52:40.426Z,16.20
2023-05-24T17:55:11.099Z,16.10
2023-05-24T17:57:39.500Z,16.00
2023-05-24T18:00:09.509Z,16.10
2023-05-24T18:02:37.967Z,15.90
2023-05-24T18:05:08.764Z,15.90
2023-05-24T18:07:37.438Z,15.70
2023-05-24T18:10:06.759Z,15.60
2023-05-24T18:12:35.044Z,15.50
2023-05-24T18:15:03.475Z,15.50
2023-05-24T18:17:31.773Z,15.40
2023-05-24T18:20:00.415Z,15.20
2023-05-24T18:22:30.665Z,15.20
2023-05-24T18:24:59.593Z,15.20
2023-05-24T18:27:27.856Z,15.10
2023-05-24T18:29:56.179Z,15.00
2023-05-24T18:32:24.849Z,14.90
2023-05-24T18:34:53.466Z,14.80
2023-05-24T18:37:23.336Z,14.70
2023-05-24T18:39:53.137Z,14.70
2023-05-24T18:42:21.465Z,14.50
2023-05-24T18:44:49.880Z,14.50
2023-05-24T18:47:18.329Z,14.40
2023-05-24T18:49:46.733Z,14.40
2023-05-24T18:52:15.104Z,14.30
2023-05-24T18:54:43.442Z,14.20
2023-05-24T18:57:13.522Z,14.20
2023-05-24T18:59:41.808Z,14.10
2023-05-24T19:02:10.310Z,14.00
2023-05-24T19:04:38.724Z,13.90
2023-05-24T19:07:07.232Z,13.90
2023-05-24T19:09:36.656Z,14.00
2023-05-24T19:12:05.732Z,13.80
2023-05-24T19:14:35.795Z,13.80
2023-05-24T19:17:04.295Z,13.60
2023-05-24T19:19:32.729Z,13.50
2023-05-24T19:22:01.220Z,13.50
2023-05-24T19:24:29.619Z,13.40
2023-05-24T19:26:58.216Z,13.50
2023-05-24T19:29:29.276Z,13.40
2023-05-24T19:31:59.262Z,13.30
2023-05-24T19:34:28.604Z,13.20
2023-05-24T19:36:57.036Z,13.10
2023-05-24T19:39:25.930Z,12.90
2023-05-24T19:41:54.247Z,12.80
2023-05-24T19:44:22.685Z,12.80
2023-05-24T19:46:51.045Z,12.70
2023-05-24T19:49:20.937Z,12.70
2023-05-24T19:51:49.250Z,12.60
2023-05-24T19:54:17.576Z,12.60
2023-05-24T19:56:49.804Z,12.70
2023-05-24T19:59:18.395Z,12.60
2023-05-24T20:01:46.964Z,12.60
2023-05-24T20:04:15.902Z,12.50
2023-05-24T20:06:45.802Z,12.50
2023-05-24T20:09:18.610Z,12.40
2023-05-24T20:11:46.979Z,12.40
2023-05-24T20:14:15.830Z,12.40
2023-05-24T20:16:44.254Z,12.70
2023-05-24T20:19:13.469Z,12.50
2023-05-24T20:21:41.807Z,12.20
2023-05-24T20:24:14.689Z,12.00
2023-05-24T20:26:43.163Z,11.90
2023-05-24T20:29:21.354Z,11.80
2023-05-24T20:31:49.750Z,11.80
2023-05-24T20:34:18.115Z,11.90
2023-05-24T20:36:46.871Z,11.90
2023-05-24T20:39:17.750Z,11.90
2023-05-24T20:41:50.640Z,11.80
2023-05-24T20:44:18.965Z,11.80
2023-05-24T20:46:48.548Z,11.70
2023-05-24T20:49:16.929Z,11.60
2023-05-24T20:51:45.905Z,11.60
2023-05-24T20:54:16.835Z,11.60
2023-05-24T20:56:45.174Z,11.50
2023-05-24T20:59:13.632Z,11.40
2023-05-24T21:01:42.254Z,11.50
2023-05-24T21:04:10.887Z,11.50
2023-05-24T21:06:40.135Z,11.40
2023-05-24T21:09:08.544Z,11.40
2023-05-24T21:11:38.464Z,11.30
2023-05-24T21:14:06.761Z,11.20
2023-05-24T21:16:35.107Z,11.20
2023-05-24T21:19:03.845Z,11.10
2023-05-24T21:21:32.303Z,11.10
2023-05-24T21:24:00.948Z,11.00
2023-05-24T21:26:29.329Z,11.00
2023-05-24T21:28:59.218Z,10.90
2023-05-24T21:31:29.898Z,10.90
2023-05-24T21:33:58.552Z,10.90
2023-05-24T21:36:27.085Z,10.90
2023-05-24T21:38:56.905Z,10.80
2023-05-24T21:41:25.442Z,10.80
2023-05-24T21:43:53.921Z,10.80
2023-05-24T21:46:23.640Z,10.80
2023-05-24T21:48:52.104Z,10.80
2023-05-24T21:51:20.463Z,10.70
2023-05-24T21:53:48.743Z,10.70
2023-05-24T21:56:17.549Z,10.70
2023-05-24T21:58:46.093Z,10.60
2023-05-24T22:01:14.878Z,10.60
2023-05-24T22:03:44.698Z,10.60
2023-05-24T22:08:47.154Z,10.70
2023-05-24T22:11:15.576Z,10.70
2023-05-24T22:13:43.804Z,10.70
2023-05-24T22:16:12.078Z,10.70
2023-05-24T22:18:40.329Z,10.70
2023-05-24T22:21:09.974Z,10.70
2023-05-24T22:23:38.185Z,10.60
2023-05-24T22:26:06.767Z,10.60
2023-05-24T22:28:53.825Z,10.60
2023-05-24T22:31:23.863Z,10.60
2023-05-24T22:33:52.367Z,10.50
2023-05-24T22:36:22.129Z,10.40
2023-05-24T22:38:50.360Z,10.30
2023-05-24T22:41:18.612Z,10.20
2023-05-24T22:43:46.847Z,10.10
2023-05-24T22:46:15.167Z,10.00
2023-05-24T22:48:43.463Z,10.10
2023-05-24T22:51:12.427Z,10.20
2023-05-24T22:53:42.073Z,10.10
2023-05-24T22:56:10.574Z,10.00
2023-05-24T22:58:39.192Z,9.90
2023-05-24T23:01:07.762Z,9.90
2023-05-24T23:03:36.483Z,9.90
2023-05-24T23:06:05.544Z,9.90
2023-05-24T23:08:34.758Z,9.90
2023-05-24T23:11:10.172Z,9.80
2023-05-24T23:13:42.057Z,9.90
2023-05-24T23:16:10.320Z,10.00
2023-05-24T23:18:42.777Z,10.00
2023-05-24T23:21:11.299Z,10.00
2023-05-24T23:23:40.389Z,9.90
2023-05-24T23:26:10.365Z,9.90
2023-05-24T23:28:38.589Z,9.90
2023-05-24T23:31:06.976Z,9.90
2023-05-24T23:33:35.190Z,9.90
2023-05-24T23:36:03.527Z,9.90
2023-05-24T23:38:32.244Z,9.90
2023-05-24T23:41:00.614Z,9.80
2023-05-24T23:43:30.983Z,9.90
2023-05-24T23:45:59.182Z,9.90
2023-05-24T23:48:27.388Z,9.90
2023-05-24T23:50:55.624Z,10.00
2023-05-24T23:53:23.900Z,10.00
2023-05-24T23:55:52.120Z,9.90
2023-05-24T23:58:20.409Z,9.90
